Time;durP1;ratioP1;P1;durP2;ratioP2;P2;SDS_P1;SDS_P2;PMS_P1;PMS_P2;Temp;Humidity;BMP_temperature;BMP_pressure;BME280_temperature;BME280_humidity;BME280_pressure;Samples;Min_cycle;Max_cycle;Signal;HPM_P1;HPM_P2
2021/10/04 00:00:55;;;;;;;0.20;0.20;;;;;;;11.09;97.39;99680.69;5084693;28;20024;-73
2021/10/04 00:03:21;;;;;;;0.30;0.30;;;;;;;11.07;97.36;99698.03;5084640;28;20031;-73
2021/10/04 00:05:46;;;;;;;0.20;0.20;;;;;;;11.04;97.70;99687.72;5084496;28;20459;-72
2021/10/04 00:08:12;;;;;;;0.20;0.20;;;;;;;11.10;97.63;99695.38;5084414;28;20032;-72
2021/10/04 00:10:37;;;;;;;0.30;0.30;;;;;;;11.07;97.25;99699.78;5066592;28;20044;-72
2021/10/04 00:13:03;;;;;;;0.30;0.30;;;;;;;11.09;97.43;99698.00;5085096;28;20055;-71
2021/10/04 00:15:30;;;;;;;0.30;0.30;;;;;;;11.11;97.66;99693.63;5084561;28;20088;-74
2021/10/04 00:17:56;;;;;;;0.20;0.20;;;;;;;11.09;97.21;99695.41;5084055;28;20089;-72
2021/10/04 00:20:22;;;;;;;0.20;0.20;;;;;;;11.05;97.19;99705.03;5083848;28;20059;-72
2021/10/04 00:22:47;;;;;;;0.20;0.20;;;;;;;11.08;97.49;99707.56;5066500;28;20040;-73
2021/10/04 00:25:13;;;;;;;0.30;0.30;;;;;;;11.05;97.43;99723.22;5084121;28;20036;-72
2021/10/04 00:27:39;;;;;;;0.25;0.25;;;;;;;11.05;97.55;99737.94;5084045;28;20050;-73
2021/10/04 00:30:06;;;;;;;0.20;0.20;;;;;;;11.07;97.67;99733.56;5083623;28;20028;-73
2021/10/04 00:32:34;;;;;;;0.20;0.20;;;;;;;11.07;97.79;99744.78;5084146;28;20032;-72
2021/10/04 00:34:59;;;;;;;0.30;0.30;;;;;;;11.06;97.54;99745.69;5083877;28;20047;-72
2021/10/04 00:37:24;;;;;;;0.20;0.20;;;;;;;11.05;97.25;99751.78;5083847;28;20021;-72
2021/10/04 00:39:50;;;;;;;0.20;0.20;;;;;;;11.05;97.56;99769.97;5083788;28;20032;-71
2021/10/04 00:42:16;;;;;;;0.30;0.30;;;;;;;11.08;97.54;99775.09;5084081;28;20091;-71
2021/10/04 00:44:41;;;;;;;0.22;0.22;;;;;;;11.13;97.54;99775.81;5084060;28;20100;-71
2021/10/04 00:47:06;;;;;;;0.38;0.38;;;;;;;11.12;97.28;99788.84;5082865;28;20036;-71
2021/10/04 00:49:32;;;;;;;0.20;0.20;;;;;;;11.11;97.36;99782.81;5082928;28;20502;-72
2021/10/04 00:51:57;;;;;;;0.20;0.20;;;;;;;11.12;97.22;99775.84;5082831;28;20024;-71
2021/10/04 00:54:22;;;;;;;0.38;0.38;;;;;;;11.11;97.20;99779.34;5083155;28;20028;-71
2021/10/04 00:56:48;;;;;;;0.20;0.20;;;;;;;11.06;97.06;99786.38;5083706;28;20490;-72
2021/10/04 00:59:13;;;;;;;0.20;0.20;;;;;;;11.09;97.39;99794.97;5083618;28;20241;-71
2021/10/04 01:01:39;;;;;;;0.30;0.30;;;;;;;11.10;96.82;99790.66;5083391;28;20032;-71
2021/10/04 01:04:05;;;;;;;0.20;0.20;;;;;;;11.08;97.10;99792.41;5083459;28;20032;-69
2021/10/04 01:06:31;;;;;;;0.30;0.30;;;;;;;11.07;96.84;99790.72;5083645;28;20059;-70
2021/10/04 01:08:57;;;;;;;0.20;0.20;;;;;;;11.06;96.87;99789.84;5083429;28;20056;-70
2021/10/04 01:11:23;;;;;;;0.20;0.20;;;;;;;11.06;97.04;99800.22;5083553;28;20020;-71
2021/10/04 01:13:49;;;;;;;0.30;0.30;;;;;;;11.10;96.81;99793.25;5083635;28;20065;-71
2021/10/04 01:16:15;;;;;;;0.20;0.20;;;;;;;11.09;96.89;99794.13;5083555;28;20048;-71
2021/10/04 01:18:41;;;;;;;0.20;0.20;;;;;;;11.03;96.90;99798.56;5083414;28;20056;-70
2021/10/04 01:21:06;;;;;;;0.20;0.20;;;;;;;11.04;96.85;99796.81;5083056;28;20037;-72
2021/10/04 01:23:32;;;;;;;0.60;0.60;;;;;;;11.02;96.63;99809.00;5083451;28;20041;-71
2021/10/04 01:25:59;;;;;;;0.30;0.30;;;;;;;10.94;96.82;99806.53;5065256;28;20017;-71
2021/10/04 01:28:25;;;;;;;0.30;0.30;;;;;;;10.96;97.18;99804.75;5065280;28;20035;-71
2021/10/04 01:30:51;;;;;;;0.30;0.30;;;;;;;10.97;97.19;99816.00;5083443;28;20035;-71
2021/10/04 01:33:16;;;;;;;0.30;0.30;;;;;;;10.97;97.23;99816.00;5083253;28;20033;-70
2021/10/04 01:35:42;;;;;;;0.20;0.20;;;;;;;10.94;97.01;99818.66;5083217;28;20024;-71
2021/10/04 01:38:07;;;;;;;0.30;0.30;;;;;;;10.98;96.86;99822.91;5082977;28;20020;-70
2021/10/04 01:40:33;;;;;;;0.35;0.35;;;;;;;10.98;96.76;99835.88;5083168;28;20143;-69
2021/10/04 01:42:59;;;;;;;0.20;0.20;;;;;;;10.98;97.17;99835.88;5085343;28;20020;-69
2021/10/04 01:45:27;;;;;;;0.30;0.30;;;;;;;10.99;96.89;99829.81;5087059;28;20304;-69
2021/10/04 01:47:53;;;;;;;0.30;0.30;;;;;;;10.95;97.02;99838.53;5087037;28;20032;-69
2021/10/04 01:50:20;;;;;;;0.20;0.20;;;;;;;10.95;96.87;99844.59;5086923;28;20024;-68
2021/10/04 01:52:46;;;;;;;0.20;0.20;;;;;;;10.93;97.25;99841.16;5087034;28;20020;-69
2021/10/04 01:55:12;;;;;;;0.28;0.28;;;;;;;10.89;96.98;99837.78;5086761;28;20096;-68
2021/10/04 01:57:38;;;;;;;0.20;0.20;;;;;;;10.92;97.28;99839.47;5087260;28;20043;-68
2021/10/04 02:00:07;;;;;;;0.20;0.20;;;;;;;10.91;97.39;99833.41;5086982;28;20074;-68
2021/10/04 02:02:33;;;;;;;0.20;0.20;;;;;;;10.90;97.11;99842.09;5086713;28;20043;-68
2021/10/04 02:04:58;;;;;;;0.20;0.20;;;;;;;10.91;96.86;99841.19;5086691;28;20022;-68
2021/10/04 02:07:24;;;;;;;0.22;0.22;;;;;;;10.90;97.09;99842.09;5086819;28;20029;-67
2021/10/04 02:09:50;;;;;;;0.20;0.20;;;;;;;10.88;97.00;99843.84;5068613;28;20063;-68
2021/10/04 02:12:16;;;;;;;0.20;0.20;;;;;;;10.89;96.82;99848.16;5086649;28;20016;-67
2021/10/04 02:14:42;;;;;;;0.20;0.20;;;;;;;10.87;96.98;99854.28;5086608;28;20043;-68
2021/10/04 02:17:07;;;;;;;0.30;0.30;;;;;;;10.83;96.87;99850.88;5086515;28;20028;-68
2021/10/04 02:19:32;;;;;;;0.30;0.30;;;;;;;10.83;96.64;99863.03;5086338;28;20035;-68
2021/10/04 02:22:00;;;;;;;0.30;0.30;;;;;;;10.77;96.58;99864.84;5086178;28;20071;-68
2021/10/04 02:24:26;;;;;;;0.22;0.22;;;;;;;10.74;96.74;99874.41;5086476;28;20040;-68
2021/10/04 02:26:52;;;;;;;0.20;0.20;;;;;;;10.74;96.64;99874.41;5086517;28;20021;-68
2021/10/04 02:29:17;;;;;;;0.20;0.20;;;;;;;10.70;96.68;99877.97;5086549;28;20063;-67
2021/10/04 02:31:43;;;;;;;0.25;0.25;;;;;;;10.71;96.52;99887.44;5086346;28;20025;-69
2021/10/04 02:34:08;;;;;;;0.20;0.20;;;;;;;10.64;96.37;99892.75;5086127;28;20025;-68
2021/10/04 02:36:33;;;;;;;0.20;0.20;;;;;;;10.66;96.35;99900.50;5086373;28;20028;-69
2021/10/04 02:38:59;;;;;;;0.30;0.30;;;;;;;10.68;96.23;99897.88;5086022;28;20043;-69
2021/10/04 02:41:24;;;;;;;0.30;0.30;;;;;;;10.62;96.38;99894.50;5085849;28;20021;-69
2021/10/04 02:43:50;;;;;;;0.30;0.30;;;;;;;10.60;96.35;99901.47;5086212;28;20020;-69
2021/10/04 02:46:15;;;;;;;0.20;0.20;;;;;;;10.54;96.64;99897.22;5086242;28;20021;-70
2021/10/04 02:48:41;;;;;;;0.28;0.28;;;;;;;10.60;96.59;99904.06;5085995;28;20490;-69
2021/10/04 02:51:06;;;;;;;0.20;0.20;;;;;;;10.54;96.73;99902.41;5086085;28;20021;-69
2021/10/04 02:53:32;;;;;;;0.20;0.20;;;;;;;10.54;96.62;99904.19;5085613;28;20028;-69
2021/10/04 02:55:57;;;;;;;0.30;0.30;;;;;;;10.58;96.87;99908.44;5085793;28;20039;-69
2021/10/04 02:58:23;;;;;;;0.30;0.30;;;;;;;10.58;96.44;99905.84;5085893;28;20024;-69
2021/10/04 03:00:48;;;;;;;0.20;0.20;;;;;;;10.57;96.63;99911.91;5085860;28;20024;-70
2021/10/04 03:03:13;;;;;;;0.20;0.20;;;;;;;10.58;96.70;99924.00;5085522;28;20025;-70
2021/10/04 03:05:38;;;;;;;0.40;0.40;;;;;;;10.57;96.74;99918.84;5085603;28;20044;-69
2021/10/04 03:08:05;;;;;;;0.20;0.20;;;;;;;10.57;96.93;99929.22;5085506;28;20020;-69
2021/10/04 03:10:31;;;;;;;0.20;0.20;;;;;;;10.58;96.82;99929.19;5085682;28;20104;-69
2021/10/04 03:12:57;;;;;;;0.30;0.30;;;;;;;10.59;96.76;99940.44;5085412;28;20024;-69
2021/10/04 03:15:22;;;;;;;4.13;3.20;;;;;;;10.62;96.43;99936.03;5085474;28;20028;-69
2021/10/04 03:17:48;;;;;;;0.30;0.30;;;;;;;10.61;96.75;99923.94;5085388;28;20099;-69
2021/10/04 03:20:13;;;;;;;0.30;0.30;;;;;;;10.62;96.52;99932.59;5084841;28;20051;-69
2021/10/04 03:22:38;;;;;;;0.30;0.30;;;;;;;10.60;96.63;99937.81;5085405;28;20032;-69
2021/10/04 03:25:06;;;;;;;0.30;0.30;;;;;;;10.58;96.63;99934.38;5085201;28;20124;-69
2021/10/04 03:27:32;;;;;;;0.30;0.30;;;;;;;10.64;96.53;99944.66;5084448;28;20396;-69
2021/10/04 03:29:57;;;;;;;0.20;0.20;;;;;;;10.62;96.84;99949.00;5084677;28;20099;-69
2021/10/04 03:32:22;;;;;;;0.30;0.30;;;;;;;10.63;97.01;99942.97;5085272;28;20081;-69
2021/10/04 03:34:48;;;;;;;0.30;0.30;;;;;;;10.61;97.09;99949.91;5084953;28;20028;-70
2021/10/04 03:37:15;;;;;;;0.20;0.20;;;;;;;10.59;97.26;99956.84;5085071;28;20108;-70
2021/10/04 03:39:41;;;;;;;0.30;0.30;;;;;;;10.65;97.08;99969.72;5084856;28;20088;-70
2021/10/04 03:42:06;;;;;;;0.28;0.28;;;;;;;10.64;97.27;99975.81;5084843;28;20027;-70
2021/10/04 03:44:32;;;;;;;0.30;0.30;;;;;;;10.64;97.34;99975.81;5066686;28;20044;-71
2021/10/04 03:46:57;;;;;;;0.20;0.20;;;;;;;10.60;97.32;99963.78;5084956;28;20430;-71
2021/10/04 03:49:22;;;;;;;0.22;0.22;;;;;;;10.64;97.52;99962.84;5084582;28;20028;-70
2021/10/04 03:51:48;;;;;;;0.30;0.30;;;;;;;10.64;97.59;99968.03;5084820;28;20091;-69
2021/10/04 03:54:13;;;;;;;0.20;0.20;;;;;;;10.61;97.40;99975.88;5084675;28;20130;-70
2021/10/04 03:56:39;;;;;;;0.20;0.20;;;;;;;10.61;97.25;99975.88;5084638;28;20032;-71
2021/10/04 03:59:04;;;;;;;0.30;0.30;;;;;;;10.66;97.31;99974.06;5084570;28;20020;-70
2021/10/04 04:01:30;;;;;;;0.20;0.20;;;;;;;10.69;97.53;99996.50;5084466;28;20013;-69
2021/10/04 04:03:55;;;;;;;0.20;0.20;;;;;;;10.69;97.46;99998.28;5084297;28;20040;-70
2021/10/04 04:06:20;;;;;;;0.20;0.20;;;;;;;10.69;97.51;99993.91;5083745;28;20028;-69
2021/10/04 04:08:46;;;;;;;0.30;0.30;;;;;;;10.74;97.48;100004.22;5084270;28;20025;-68
2021/10/04 04:11:11;;;;;;;0.20;0.20;;;;;;;10.70;97.39;99994.78;5084411;28;20080;-70
2021/10/04 04:13:37;;;;;;;0.20;0.20;;;;;;;10.76;97.59;100005.06;5084211;28;20369;-68
2021/10/04 04:16:04;;;;;;;2.92;2.83;;;;;;;10.76;97.84;100023.25;5084014;28;20164;-69
2021/10/04 04:18:30;;;;;;;0.30;0.30;;;;;;;10.80;97.51;100043.06;5084004;28;20020;-69
2021/10/04 04:20:55;;;;;;;0.20;0.20;;;;;;;10.81;97.62;100037.03;5083630;28;20093;-69
2021/10/04 04:23:21;;;;;;;0.20;0.20;;;;;;;10.87;98.04;100029.13;5084091;28;20515;-66
2021/10/04 04:25:46;;;;;;;0.30;0.30;;;;;;;10.89;97.71;100034.31;5084186;28;20017;-70
2021/10/04 04:28:11;;;;;;;0.40;0.40;;;;;;;10.91;97.64;100030.78;5084018;28;20495;-76
2021/10/04 04:30:37;;;;;;;0.20;0.20;;;;;;;10.93;97.93;100032.53;5084254;28;20085;-72
2021/10/04 04:33:02;;;;;;;0.30;0.30;;;;;;;10.96;97.70;100040.25;5083818;28;20024;-72
2021/10/04 04:35:27;;;;;;;0.20;0.20;;;;;;;11.01;97.42;100044.50;5083502;28;20039;-73
2021/10/04 04:37:53;;;;;;;0.30;0.30;;;;;;;10.96;97.42;100035.06;5083314;28;20484;-72
2021/10/04 04:40:19;;;;;;;0.20;0.20;;;;;;;11.01;97.72;100051.41;5083196;28;20080;-71
2021/10/04 04:42:45;;;;;;;0.30;0.30;;;;;;;11.05;97.72;100047.91;5083407;28;20035;-69
2021/10/04 04:45:13;;;;;;;0.28;0.28;;;;;;;11.04;97.88;100051.38;5083500;28;20040;-69
2021/10/04 04:47:38;;;;;;;0.30;0.30;;;;;;;11.08;97.66;100057.38;5083559;28;20032;-70
2021/10/04 04:50:06;;;;;;;0.30;0.30;;;;;;;11.10;97.79;100061.66;5083581;28;20025;-69
2021/10/04 04:52:31;;;;;;;0.30;0.30;;;;;;;11.12;97.84;100062.50;5065513;28;20028;-69
2021/10/04 04:54:56;;;;;;;0.30;0.30;;;;;;;11.16;98.16;100047.72;5065582;28;20021;-69
2021/10/04 04:57:22;;;;;;;0.30;0.30;;;;;;;11.20;97.74;100058.94;5083816;28;20024;-70
2021/10/04 04:59:47;;;;;;;0.20;0.20;;;;;;;11.21;98.12;100073.63;5083669;28;20078;-69
2021/10/04 05:02:13;;;;;;;0.20;0.20;;;;;;;11.22;97.94;100064.94;5083455;28;20494;-70
2021/10/04 05:04:39;;;;;;;0.28;0.28;;;;;;;11.23;98.10;100066.69;5083369;28;20024;-71
2021/10/04 05:07:04;;;;;;;0.30;0.30;;;;;;;11.24;97.66;100063.19;5083237;28;20025;-69
2021/10/04 05:09:29;;;;;;;0.30;0.30;;;;;;;11.25;97.75;100067.50;5083345;28;20025;-69
2021/10/04 05:11:55;;;;;;;0.22;0.22;;;;;;;11.27;97.89;100084.78;5083441;28;20028;-69
2021/10/04 05:14:20;;;;;;;0.30;0.30;;;;;;;11.25;97.75;100067.50;5083333;28;20035;-69
2021/10/04 05:16:46;;;;;;;0.20;0.20;;;;;;;11.29;97.62;100082.16;5064631;28;20098;-68
2021/10/04 05:19:12;;;;;;;0.20;0.20;;;;;;;11.24;97.94;100069.25;5083075;28;20029;-69
2021/10/04 05:21:38;;;;;;;0.30;0.30;;;;;;;11.27;97.76;100071.78;5083072;28;20043;-70
2021/10/04 05:24:04;;;;;;;0.30;0.30;;;;;;;11.26;97.95;100071.81;5083352;28;20033;-69
2021/10/04 05:26:29;;;;;;;0.30;0.30;;;;;;;11.29;97.88;100079.56;5082989;28;20025;-69
2021/10/04 05:28:54;;;;;;;0.20;0.20;;;;;;;11.32;97.71;100091.63;5083055;28;20020;-69
2021/10/04 05:31:20;;;;;;;0.20;0.20;;;;;;;11.34;97.73;100085.53;5083403;28;20028;-69
2021/10/04 05:33:45;;;;;;;0.30;0.30;;;;;;;11.35;97.91;100076.00;5083298;28;20033;-68
2021/10/04 05:36:11;;;;;;;0.25;0.25;;;;;;;11.36;97.83;100081.16;5083170;28;20050;-68
2021/10/04 05:38:36;;;;;;;0.28;0.28;;;;;;;11.40;98.04;100088.03;5082987;28;20046;-69
2021/10/04 05:41:02;;;;;;;0.20;0.20;;;;;;;11.44;97.95;100088.81;5065031;28;20017;-68
2021/10/04 05:43:27;;;;;;;0.65;0.65;;;;;;;11.49;97.84;100089.63;5083084;28;20621;-68
2021/10/04 05:45:52;;;;;;;0.30;0.30;;;;;;;11.52;97.83;100096.50;5083234;28;20048;-69
2021/10/04 05:48:18;;;;;;;0.20;0.20;;;;;;;11.52;97.91;100093.88;5083061;28;20021;-69
2021/10/04 05:50:43;;;;;;;2.47;1.05;;;;;;;11.55;97.63;100098.19;5064722;28;20272;-68
2021/10/04 05:53:08;;;;;;;1.05;1.05;;;;;;;11.56;98.04;100092.97;5083041;28;20027;-69
2021/10/04 05:55:34;;;;;;;0.30;0.30;;;;;;;11.56;98.62;100105.97;5083268;28;20129;-69
2021/10/04 05:58:00;;;;;;;0.30;0.30;;;;;;;11.64;98.63;100104.09;5082876;28;20047;-69
2021/10/04 06:00:25;;;;;;;0.30;0.30;;;;;;;11.76;98.64;100108.22;5082978;28;20115;-69
2021/10/04 06:02:50;;;;;;;0.20;0.20;;;;;;;11.80;98.85;100114.22;5083063;28;20365;-69
2021/10/04 06:05:16;;;;;;;0.30;0.30;;;;;;;11.90;98.62;100126.16;5082793;28;20032;-68
2021/10/04 06:07:42;;;;;;;0.20;0.20;;;;;;;11.95;98.81;100122.63;5082798;28;20027;-68
2021/10/04 06:10:10;;;;;;;0.20;0.20;;;;;;;12.02;99.08;100130.28;5083082;28;20028;-67
2021/10/04 06:12:36;;;;;;;0.20;0.20;;;;;;;12.07;99.09;100130.19;5082911;28;20027;-67
2021/10/04 06:15:02;;;;;;;0.20;0.20;;;;;;;12.22;98.55;100149.03;5083044;28;20109;-68
2021/10/04 06:17:28;;;;;;;0.20;0.20;;;;;;;12.26;98.33;100159.34;5083019;28;20029;-68
2021/10/04 06:19:54;;;;;;;0.22;0.22;;;;;;;12.29;98.76;100168.84;5082716;28;20047;-68
2021/10/04 06:22:20;;;;;;;0.20;0.20;;;;;;;12.28;98.99;100169.75;5082680;28;20049;-68
2021/10/04 06:24:45;;;;;;;0.20;0.20;;;;;;;12.37;99.00;100171.28;5082887;28;20032;-67
2021/10/04 06:27:11;;;;;;;0.20;0.20;;;;;;;12.45;98.91;100169.41;5082698;28;20356;-66
2021/10/04 06:29:37;;;;;;;0.20;0.20;;;;;;;12.48;98.96;100168.47;5085093;28;20021;-66
2021/10/04 06:32:04;;;;;;;0.20;0.20;;;;;;;12.58;99.20;100176.97;5086674;28;20368;-66
2021/10/04 06:34:30;;;;;;;0.25;0.25;;;;;;;12.59;98.73;100181.25;5086144;28;20043;-66
2021/10/04 06:36:55;;;;;;;0.20;0.20;;;;;;;12.62;99.16;100176.84;5086172;28;20016;-66
2021/10/04 06:39:20;;;;;;;0.30;0.30;;;;;;;12.64;99.10;100190.72;5086157;28;20029;-65
2021/10/04 06:41:46;;;;;;;0.20;0.20;;;;;;;12.68;99.32;100190.66;5086362;28;20028;-66
2021/10/04 06:44:11;;;;;;;0.30;0.30;;;;;;;12.71;98.79;100186.25;5086108;28;20028;-65
2021/10/04 06:46:38;;;;;;;0.35;0.35;;;;;;;12.79;99.01;100193.91;5086121;28;20104;-67
2021/10/04 06:49:04;;;;;;;0.20;0.20;;;;;;;12.82;99.13;100193.81;5085873;28;20028;-65
2021/10/04 06:51:30;;;;;;;0.30;0.30;;;;;;;12.84;98.63;100192.03;5086109;28;20150;-65
2021/10/04 06:53:55;;;;;;;0.20;0.20;;;;;;;12.87;98.80;100199.81;5086249;28;20029;-66
2021/10/04 06:56:21;;;;;;;1.20;1.20;;;;;;;12.91;98.49;100202.34;5086064;28;20020;-65
2021/10/04 06:58:46;;;;;;;0.20;0.20;;;;;;;12.94;98.44;100212.69;5085900;28;20051;-66
2021/10/04 07:01:11;;;;;;;0.20;0.20;;;;;;;12.93;98.08;100210.97;5085739;28;20080;-65
2021/10/04 07:03:37;;;;;;;0.30;0.30;;;;;;;12.93;98.13;100218.78;5085855;28;20095;-64
2021/10/04 07:06:03;;;;;;;0.38;0.38;;;;;;;12.95;98.40;100219.63;5085640;28;20016;-65
2021/10/04 07:08:28;;;;;;;0.20;0.20;;;;;;;13.01;98.64;100220.34;5085757;28;20020;-66
2021/10/04 07:10:54;;;;;;;0.30;0.30;;;;;;;13.09;98.18;100221.91;5085625;28;20016;-65
2021/10/04 07:13:19;;;;;;;0.30;0.30;;;;;;;13.07;98.69;100224.56;5085434;28;20085;-65
2021/10/04 07:15:45;;;;;;;0.30;0.30;;;;;;;13.21;98.44;100239.88;5085528;28;20024;-65
2021/10/04 07:18:10;;;;;;;0.65;0.65;;;;;;;13.24;98.47;100247.63;5085454;28;20085;-64
2021/10/04 07:20:35;;;;;;;0.30;0.30;;;;;;;13.31;97.89;100247.50;5084956;28;20041;-64
2021/10/04 07:23:02;;;;;;;0.20;0.20;;;;;;;13.36;97.82;100250.88;5085413;28;20024;-65
2021/10/04 07:25:28;;;;;;;0.20;0.20;;;;;;;13.39;97.69;100248.19;5085337;28;20016;-65
2021/10/04 07:27:53;;;;;;;0.20;0.20;;;;;;;13.43;97.54;100252.47;5085070;28;20090;-65
2021/10/04 07:30:19;;;;;;;0.20;0.20;;;;;;;13.47;97.49;100253.22;5085347;28;20031;-67
2021/10/04 07:32:45;;;;;;;0.68;0.55;;;;;;;13.57;97.23;100260.00;5085175;28;20252;-67
2021/10/04 07:35:11;;;;;;;0.30;0.30;;;;;;;13.56;97.17;100252.22;5085057;28;20024;-68
2021/10/04 07:37:37;;;;;;;0.30;0.30;;;;;;;13.67;97.26;100267.59;5085021;28;20024;-68
2021/10/04 07:40:03;;;;;;;0.32;0.32;;;;;;;13.76;96.64;100267.38;5085110;28;20089;-68
2021/10/04 07:42:29;;;;;;;0.20;0.20;;;;;;;13.88;96.44;100267.06;5084790;28;20130;-67
2021/10/04 07:44:54;;;;;;;0.20;0.20;;;;;;;13.94;96.13;100278.25;5084841;28;20033;-68
2021/10/04 07:47:20;;;;;;;0.20;0.20;;;;;;;14.04;96.03;100271.91;5085038;28;20020;-66
2021/10/04 07:49:45;;;;;;;0.20;0.20;;;;;;;14.03;95.53;100272.81;5084509;28;20021;-65
2021/10/04 07:52:10;;;;;;;0.20;0.20;;;;;;;13.99;96.06;100281.63;5084897;28;20028;-66
2021/10/04 07:54:36;;;;;;;0.43;0.43;;;;;;;13.95;95.24;100285.19;5084946;28;20464;-66
2021/10/04 07:57:01;;;;;;;0.20;0.20;;;;;;;13.86;95.68;100284.53;5084865;28;20025;-67
2021/10/04 07:59:27;;;;;;;0.65;0.65;;;;;;;13.82;95.11;100289.84;5084512;28;20537;-66
2021/10/04 08:01:52;;;;;;;0.20;0.20;;;;;;;13.82;95.25;100284.63;5084532;28;20450;-67
2021/10/04 08:04:18;;;;;;;0.20;0.20;;;;;;;13.91;95.12;100291.38;5084418;28;20025;-66
2021/10/04 08:06:43;;;;;;;0.20;0.20;;;;;;;13.91;95.07;100286.16;5084513;28;20028;-66
2021/10/04 08:09:09;;;;;;;0.20;0.20;;;;;;;13.83;94.18;100282.00;5084387;28;20096;-67
2021/10/04 08:11:34;;;;;;;0.20;0.20;;;;;;;13.91;93.90;100292.25;5084670;28;20133;-67
2021/10/04 08:14:00;;;;;;;0.30;0.30;;;;;;;13.86;93.68;100292.38;5084551;28;20020;-67
2021/10/04 08:16:25;;;;;;;0.20;0.20;;;;;;;13.88;94.26;100302.78;5084501;28;20051;-67
2021/10/04 08:18:52;;;;;;;0.20;0.20;;;;;;;13.81;94.04;100303.78;5084328;28;20523;-66
2021/10/04 08:21:19;;;;;;;0.55;0.55;;;;;;;13.80;94.22;100310.75;5084047;28;20108;-67
2021/10/04 08:23:45;;;;;;;0.38;0.38;;;;;;;13.72;93.57;100300.50;5084318;28;20032;-66
2021/10/04 08:26:10;;;;;;;0.20;0.20;;;;;;;13.67;93.86;100296.28;5084177;28;20028;-67
2021/10/04 08:28:36;;;;;;;0.20;0.20;;;;;;;13.59;93.69;100299.94;5066165;28;20042;-66
2021/10/04 08:31:01;;;;;;;0.20;0.20;;;;;;;13.55;92.79;100300.03;5084121;28;20298;-66
2021/10/04 08:33:27;;;;;;;0.22;0.22;;;;;;;13.54;93.30;100290.50;5084175;28;20025;-66
2021/10/04 08:35:52;;;;;;;1.15;0.85;;;;;;;13.53;93.56;100300.06;5083921;28;20028;-66
2021/10/04 08:38:18;;;;;;;0.28;0.28;;;;;;;13.58;94.04;100297.34;5083947;28;20024;-66
2021/10/04 08:40:43;;;;;;;0.30;0.30;;;;;;;13.65;94.10;100301.53;5083950;28;20056;-67
2021/10/04 08:43:08;;;;;;;0.20;0.20;;;;;;;13.73;94.52;100288.31;5084112;28;20025;-66
2021/10/04 08:45:36;;;;;;;0.20;0.20;;;;;;;13.90;94.65;100276.63;5083980;28;20050;-67
2021/10/04 08:48:02;;;;;;;0.20;0.20;;;;;;;13.98;94.97;100287.72;5084021;28;20106;-67
2021/10/04 08:50:31;;;;;;;0.20;0.20;;;;;;;14.12;94.37;100292.63;5083692;28;20521;-67
2021/10/04 08:52:57;;;;;;;0.20;0.20;;;;;;;14.21;94.23;100291.50;5083554;28;20054;-67
2021/10/04 08:55:24;;;;;;;0.20;0.20;;;;;;;14.21;92.84;100287.16;5083874;28;20028;-67
2021/10/04 08:57:50;;;;;;;0.30;0.30;;;;;;;14.17;92.42;100279.44;5083969;28;20050;-67
2021/10/04 09:00:16;;;;;;;0.30;0.30;;;;;;;14.05;91.64;100285.81;5065541;28;20020;-67
2021/10/04 09:02:41;;;;;;;0.50;0.50;;;;;;;14.02;92.32;100292.00;5083573;28;20058;-67
2021/10/04 09:05:25;;;;;;;0.35;0.35;;;;;;;13.94;92.03;100293.91;5083503;28;20430;-67
2021/10/04 09:07:52;;;;;;;0.20;0.20;;;;;;;13.94;92.15;100294.78;5083785;28;20024;-66
2021/10/04 09:10:26;;;;;;;0.20;0.20;;;;;;;13.87;92.28;100275.81;5083760;28;20039;-67
2021/10/04 09:12:59;;;;;;;0.20;0.20;;;;;;;14.24;92.32;100283.59;5083611;28;20616;-67
2021/10/04 09:15:35;;;;;;;0.20;0.20;;;;;;;14.61;93.53;100293.09;5083745;28;20028;-65
2021/10/04 09:18:21;;;;;;;0.20;0.20;;;;;;;15.35;94.57;100286.66;5083611;28;20020;-65
2021/10/04 09:20:49;;;;;;;0.20;0.20;;;;;;;16.18;90.86;100284.06;5083080;28;20036;-66
2021/10/04 09:23:30;;;;;;;0.20;0.20;;;;;;;16.19;87.74;100291.03;5083411;28;20029;-67
2021/10/04 09:25:55;;;;;;;0.20;0.20;;;;;;;16.03;86.71;100297.69;5083425;28;20055;-66
2021/10/04 09:28:38;;;;;;;0.20;0.20;;;;;;;15.95;87.80;100296.16;5083423;28;20047;-66
2021/10/04 09:31:24;;;;;;;0.20;0.20;;;;;;;15.80;88.86;100294.03;5083322;28;20081;-67
2021/10/04 09:34:06;;;;;;;0.20;0.20;;;;;;;15.63;87.12;100295.41;5083493;28;20021;-66
2021/10/04 09:36:53;;;;;;;0.30;0.30;;;;;;;15.56;87.89;100293.91;5083274;28;20032;-66
2021/10/04 09:39:21;;;;;;;0.20;0.20;;;;;;;15.64;89.19;100283.19;5083267;28;20025;-66
2021/10/04 09:42:06;;;;;;;0.20;0.20;;;;;;;15.64;88.49;100291.06;5083387;28;20032;-66
2021/10/04 09:45:00;;;;;;;0.20;0.20;;;;;;;15.64;88.60;100297.13;5083324;28;20028;-66
2021/10/04 09:47:45;;;;;;;0.68;0.68;;;;;;;15.52;87.56;100310.59;5083535;28;20013;-65
2021/10/04 09:50:16;;;;;;;0.20;0.20;;;;;;;15.33;88.29;100304.19;5082803;28;20021;-67
2021/10/04 09:52:51;;;;;;;0.77;0.77;;;;;;;15.22;88.15;100312.31;5083273;28;20013;-66
2021/10/04 09:55:34;;;;;;;0.20;0.20;;;;;;;15.20;86.28;100315.88;5083310;28;20028;-65
2021/10/04 09:58:10;;;;;;;0.20;0.20;;;;;;;15.15;86.56;100318.63;5083282;28;20024;-66
2021/10/04 10:00:58;;;;;;;0.20;0.20;;;;;;;15.11;86.86;100310.03;5083193;28;20016;-66
2021/10/04 10:03:38;;;;;;;2.63;1.05;;;;;;;15.00;84.75;100314.69;5083575;28;20055;-66
2021/10/04 10:06:04;;;;;;;0.20;0.20;;;;;;;15.04;85.72;100312.84;5086832;28;20021;-66
2021/10/04 10:08:30;;;;;;;5.10;4.25;;;;;;;14.98;86.68;100319.13;5086729;28;20077;-66
2021/10/04 10:11:01;;;;;;;0.20;0.20;;;;;;;14.99;86.00;100315.59;5086682;28;20048;-66
2021/10/04 10:13:29;;;;;;;0.20;0.20;;;;;;;14.87;86.04;100322.88;5087073;28;20027;-67
2021/10/04 10:16:16;;;;;;;0.20;0.20;;;;;;;14.88;85.75;100334.22;5086748;28;20031;-67
2021/10/04 10:18:52;;;;;;;0.20;0.20;;;;;;;14.91;87.04;100328.91;5086526;28;20024;-66
2021/10/04 10:21:23;;;;;;;0.20;0.20;;;;;;;14.89;86.14;100345.53;5086300;28;20128;-66
2021/10/04 10:23:49;;;;;;;1.98;1.85;;;;;;;14.94;87.05;100344.50;5086521;28;20025;-66
2021/10/04 10:26:41;;;;;;;1.85;1.75;;;;;;;14.87;86.59;100343.78;5086468;28;20039;-66
2021/10/04 10:29:09;;;;;;;0.20;0.20;;;;;;;14.74;85.79;100351.06;5086284;28;20023;-66
2021/10/04 10:31:50;;;;;;;0.20;0.20;;;;;;;14.70;86.27;100364.25;5086514;28;20031;-66
2021/10/04 10:34:24;;;;;;;0.20;0.20;;;;;;;14.70;87.19;100359.91;5086450;28;20017;-66
2021/10/04 10:36:57;;;;;;;0.20;0.20;;;;;;;14.57;86.67;100379.44;5086386;28;20055;-66
2021/10/04 10:39:43;;;;;;;0.20;0.20;;;;;;;14.53;85.55;100380.38;5086182;28;20032;-66
2021/10/04 10:42:16;;;;;;;0.30;0.30;;;;;;;14.38;86.95;100378.13;5086353;28;20020;-67
2021/10/04 10:44:54;;;;;;;0.20;0.20;;;;;;;14.35;87.33;100382.56;5068100;28;20032;-67
2021/10/04 10:47:38;;;;;;;0.20;0.20;;;;;;;14.35;86.27;100377.34;5086065;28;20020;-66
2021/10/04 10:50:05;;;;;;;0.20;0.20;;;;;;;14.33;85.93;100390.44;5085621;28;20555;-66
2021/10/04 10:52:32;;;;;;;0.20;0.20;;;;;;;14.36;86.88;100376.47;5085846;28;20025;-66
2021/10/04 10:54:59;;;;;;;0.20;0.20;;;;;;;14.48;87.14;100375.28;5085482;28;20027;-68
2021/10/04 10:57:54;;;;;;;0.35;0.35;;;;;;;14.55;87.01;100394.28;5085770;28;20020;-65
2021/10/04 11:00:28;;;;;;;0.38;0.38;;;;;;;14.54;87.75;100380.34;5085744;28;20027;-66
2021/10/04 11:03:00;;;;;;;0.20;0.20;;;;;;;14.54;87.29;100372.50;5085912;28;20020;-65
2021/10/04 11:05:37;;;;;;;0.35;0.35;;;;;;;14.61;88.01;100376.69;5067770;28;20050;-66
2021/10/04 11:08:27;;;;;;;0.20;0.20;;;;;;;14.67;88.34;100372.19;5085959;28;20024;-66
2021/10/04 11:10:52;;;;;;;0.20;0.20;;;;;;;14.79;88.15;100366.66;5085769;28;20024;-66
2021/10/04 11:14:02;;;;;;;0.35;0.35;;;;;;;14.73;87.63;100361.56;5067840;28;20070;-66
2021/10/04 11:16:27;;;;;;;0.75;0.75;;;;;;;14.76;86.73;100366.72;5080576;28;20040;-66
2021/10/04 11:18:54;;;;;;;0.20;0.20;;;;;;;14.63;87.17;100372.25;5085441;28;20031;-66
2021/10/04 11:21:23;;;;;;;0.30;0.30;;;;;;;14.55;86.22;100371.63;5085122;28;20051;-66
2021/10/04 11:24:04;;;;;;;0.20;0.20;;;;;;;14.49;85.81;100380.47;5085382;28;20422;-66
2021/10/04 11:26:36;;;;;;;0.60;0.60;;;;;;;14.54;87.55;100387.31;5085628;28;20032;-66
2021/10/04 11:29:04;;;;;;;0.45;0.45;;;;;;;14.58;86.83;100388.97;5085248;28;20265;-65
2021/10/04 11:31:35;;;;;;;0.20;0.20;;;;;;;14.43;86.73;100391.06;5085382;28;20104;-65